Williamsburg, Missouri
Current Conditions -  °F | °C
As of 5:24 PM on Monday 22 Dec 2014 (Local Time) from KCOU Reporting Station
Light Rain Light Rain  
Wind Chill: 42°   Ceiling: 400
Heat Index: 47°   Visibility: 7mi
Dew Point: 46°   Wind: 10mph
Humidity: 97%   Direction: 160°SSE
Pressure: 29.48"   Gusts: NA
Location:  38.92°N, 91.7°W
Report Text: KCOU 222324Z 16009KT 7SM -RA OVC004 08/08 A2948 RMK AO2 RAB04 P0001 T00830078
Loading
Personal Weather Stations






























Interactive Weather Map New forecast layout! Learn more

10-Day Weather Forecast

Advertisements
Track Severe Weather on mobile